Time,TemperatureF,DewpointF,PressureIn,WindDirection,WindDirectionDegrees,WindSpeedMPH,WindSpeedGustMPH,Humidity,HourlyPrecipIn,Conditions,Clouds,dailyrainin,SoftwareType,DateUTC
2013-08-20 00:04:00,66.1,-37.6,30.03,SSW,197,0.0,2.0,1,0.00,,,0.00,Wunderground v.1.15,2013-08-20 05:04:00,
2013-08-20 00:09:00,66.2,-37.5,30.03,SSW,197,0.0,2.0,1,0.00,,,0.00,Wunderground v.1.15,2013-08-20 05:09:00,
2013-08-20 00:19:00,66.5,-37.3,30.03,SSW,196,0.0,2.0,1,0.00,,,0.00,Wunderground v.1.15,2013-08-20 05:19:00,
2013-08-20 00:29:00,66.4,-37.4,30.03,SSW,196,0.0,2.0,1,0.00,,,0.00,Wunderground v.1.15,2013-08-20 05:29:00,
2013-08-20 00:40:00,66.6,-37.3,30.03,SSW,197,0.0,2.0,1,0.00,,,0.00,Wunderground v.1.15,2013-08-20 05:40:00,
2013-08-20 00:49:00,66.6,-37.3,30.03,SSW,197,0.0,2.0,1,0.00,,,0.00,Wunderground v.1.15,2013-08-20 05:49:00,
2013-08-20 00:59:00,66.5,-37.3,30.03,SSW,197,0.0,2.0,1,0.00,,,0.00,Wunderground v.1.15,2013-08-20 05:59:00,
2013-08-20 01:09:00,66.2,-37.5,30.03,SSW,197,0.0,2.0,1,0.00,,,0.00,Wunderground v.1.15,2013-08-20 06:09:00,
2013-08-20 01:20:00,66.0,-37.6,30.02,SSW,197,0.0,2.0,1,0.00,,,0.00,Wunderground v.1.15,2013-08-20 06:20:00,
2013-08-20 01:29:00,65.8,-37.8,30.02,SSW,197,0.0,2.0,1,0.00,,,0.00,Wunderground v.1.15,2013-08-20 06:29:00,
2013-08-20 01:39:00,65.7,-37.8,30.02,SSW,197,0.0,2.0,1,0.00,,,0.00,Wunderground v.1.15,2013-08-20 06:39:00,
2013-08-20 01:49:00,65.6,-37.9,30.02,SSW,197,0.0,2.0,1,0.00,,,0.00,Wunderground v.1.15,2013-08-20 06:49:00,
2013-08-20 02:00:00,65.5,-37.9,30.02,SSW,197,0.0,2.0,1,0.00,,,0.00,Wunderground v.1.15,2013-08-20 07:00:00,
2013-08-20 02:09:00,65.5,-37.9,30.02,SSW,197,0.0,2.0,1,0.00,,,0.00,Wunderground v.1.15,2013-08-20 07:09:00,
2013-08-20 02:19:00,65.3,-38.1,30.02,SSW,197,0.0,2.0,1,0.00,,,0.00,Wunderground v.1.15,2013-08-20 07:19:00,
2013-08-20 02:29:00,65.2,-38.1,30.02,SSW,197,0.0,2.0,1,0.00,,,0.00,Wunderground v.1.15,2013-08-20 07:29:00,
2013-08-20 02:39:00,65.2,-38.1,30.02,SSW,197,0.0,2.0,1,0.00,,,0.00,Wunderground v.1.15,2013-08-20 07:39:00,
2013-08-20 02:49:00,64.8,-38.4,30.02,SSW,197,0.0,2.0,1,0.00,,,0.00,Wunderground v.1.15,2013-08-20 07:49:00,
2013-08-20 02:59:00,65.0,-38.3,30.02,SSW,197,0.0,2.0,1,0.00,,,0.00,Wunderground v.1.15,2013-08-20 07:59:00,
2013-08-20 03:09:00,64.7,-38.4,30.02,SSW,197,0.0,2.0,1,0.00,,,0.00,Wunderground v.1.15,2013-08-20 08:09:00,
2013-08-20 03:14:00,64.4,-38.6,30.02,SSW,197,0.0,2.0,1,0.00,,,0.00,Wunderground v.1.15,2013-08-20 08:14:00,
2013-08-20 03:24:00,64.5,-38.6,30.02,SSW,197,0.0,2.0,1,0.00,,,0.00,Wunderground v.1.15,2013-08-20 08:24:00,
2013-08-20 03:34:00,64.4,-38.6,30.02,SSW,198,0.0,2.0,1,0.00,,,0.00,Wunderground v.1.15,2013-08-20 08:34:00,
2013-08-20 03:44:00,64.3,-38.7,30.02,SSW,197,0.0,2.0,1,0.00,,,0.00,Wunderground v.1.15,2013-08-20 08:44:00,
2013-08-20 03:50:00,64.1,-38.8,30.02,SSW,197,0.0,2.0,1,0.00,,,0.00,Wunderground v.1.15,2013-08-20 08:50:00,
2013-08-20 03:59:00,64.2,-38.7,30.02,SSW,197,0.0,2.0,1,0.00,,,0.00,Wunderground v.1.15,2013-08-20 08:59:00,
2013-08-20 04:09:00,63.8,-39.0,30.01,SSW,198,0.0,2.0,1,0.00,,,0.00,Wunderground v.1.15,2013-08-20 09:09:00,
2013-08-20 04:19:00,63.7,-39.0,30.02,SSW,197,0.0,2.0,1,0.00,,,0.00,Wunderground v.1.15,2013-08-20 09:19:00,
2013-08-20 04:30:00,63.8,-39.0,30.01,SSW,197,0.0,2.0,1,0.00,,,0.00,Wunderground v.1.15,2013-08-20 09:30:00,
2013-08-20 04:39:00,64.0,-38.9,30.01,SSW,198,0.0,2.0,1,0.00,,,0.00,Wunderground v.1.15,2013-08-20 09:39:00,
2013-08-20 04:49:00,64.0,-38.9,30.01,SSW,197,0.0,2.0,1,0.00,,,0.00,Wunderground v.1.15,2013-08-20 09:49:00,
2013-08-20 04:59:00,63.3,-39.3,30.02,SSW,197,0.0,2.0,1,0.00,,,0.00,Wunderground v.1.15,2013-08-20 09:59:00,
2013-08-20 05:10:00,63.0,-39.5,30.02,SSW,197,0.0,2.0,1,0.00,,,0.00,Wunderground v.1.15,2013-08-20 10:10:00,
2013-08-20 05:19:00,62.9,-39.5,30.02,SSW,197,0.0,2.0,1,0.00,,,0.00,Wunderground v.1.15,2013-08-20 10:19:00,
2013-08-20 05:29:00,62.7,-39.7,30.02,SSW,197,0.0,2.0,1,0.00,,,0.00,Wunderground v.1.15,2013-08-20 10:29:00,
2013-08-20 05:39:00,63.0,-39.5,30.02,SSW,197,0.0,2.0,1,0.00,,,0.00,Wunderground v.1.15,2013-08-20 10:39:00,
2013-08-20 05:44:00,62.8,-39.6,30.03,SSW,198,0.0,2.0,1,0.00,,,0.00,Wunderground v.1.15,2013-08-20 10:44:00,
2013-08-20 05:54:00,62.2,-40.0,30.03,SSW,197,0.0,2.0,1,0.00,,,0.00,Wunderground v.1.15,2013-08-20 10:54:00,
2013-08-20 06:04:00,62.2,-40.0,30.03,SSW,197,0.0,2.0,1,0.00,,,0.00,Wunderground v.1.15,2013-08-20 11:04:00,
2013-08-20 06:14:00,61.9,-40.1,30.03,SSW,197,0.0,2.0,1,0.00,,,0.00,Wunderground v.1.15,2013-08-20 11:14:00,
2013-08-20 06:20:00,61.8,-40.2,30.03,SSW,197,0.0,2.0,1,0.00,,,0.00,Wunderground v.1.15,2013-08-20 11:20:00,
2013-08-20 06:29:00,61.9,-40.1,30.04,SSW,197,0.0,2.0,1,0.00,,,0.00,Wunderground v.1.15,2013-08-20 11:29:00,
2013-08-20 06:39:00,62.4,-39.8,30.04,SSW,197,0.0,2.0,1,0.00,,,0.00,Wunderground v.1.15,2013-08-20 11:39:00,
2013-08-20 06:49:00,62.6,-39.7,30.04,SSW,197,0.0,2.0,1,0.00,,,0.00,Wunderground v.1.15,2013-08-20 11:49:00,
2013-08-20 07:00:00,62.2,-40.0,30.04,SSW,197,0.0,2.0,1,0.00,,,0.00,Wunderground v.1.15,2013-08-20 12:00:00,
2013-08-20 07:09:00,62.8,-39.6,30.04,SSW,197,0.0,2.0,1,0.00,,,0.00,Wunderground v.1.15,2013-08-20 12:09:00,
2013-08-20 07:19:00,64.3,-38.7,30.05,SSW,197,0.0,2.0,1,0.00,,,0.00,Wunderground v.1.15,2013-08-20 12:19:00,
2013-08-20 07:29:00,66.1,-37.6,30.05,SSW,197,0.0,2.0,1,0.00,,,0.00,Wunderground v.1.15,2013-08-20 12:29:00,
2013-08-20 07:40:00,66.9,-37.1,30.05,SSW,197,0.0,2.0,1,0.00,,,0.00,Wunderground v.1.15,2013-08-20 12:40:00,
2013-08-20 07:49:00,68.7,-36.0,30.05,SSW,197,0.0,2.0,1,0.00,,,0.00,Wunderground v.1.15,2013-08-20 12:49:00,
2013-08-20 07:59:00,69.9,-35.3,30.05,SSW,197,0.0,2.0,1,0.00,,,0.00,Wunderground v.1.15,2013-08-20 12:59:00,
2013-08-20 08:09:00,70.7,-34.8,30.05,SSE,158,0.0,2.0,1,0.00,,,0.00,Wunderground v.1.15,2013-08-20 13:09:00,
2013-08-20 08:19:00,71.3,-34.4,30.06,SSE,149,0.0,2.0,1,0.00,,,0.00,Wunderground v.1.15,2013-08-20 13:19:00,
2013-08-20 08:29:00,72.0,-34.0,30.06,ESE,107,0.0,2.0,1,0.00,,,0.00,Wunderground v.1.15,2013-08-20 13:29:00,
2013-08-20 08:39:00,72.3,-33.8,30.06,ESE,105,0.0,2.0,1,0.00,,,0.00,Wunderground v.1.15,2013-08-20 13:39:00,
2013-08-20 08:50:00,73.3,-33.2,30.06,East,95,0.0,2.0,1,0.00,,,0.00,Wunderground v.1.15,2013-08-20 13:50:00,
2013-08-20 08:59:00,74.5,-32.5,30.07,ESE,112,0.0,2.0,1,0.00,,,0.00,Wunderground v.1.15,2013-08-20 13:59:00,
2013-08-20 09:09:00,75.0,-32.2,30.06,East,85,0.0,2.0,1,0.00,,,0.00,Wunderground v.1.15,2013-08-20 14:09:00,
2013-08-20 09:19:00,75.7,-31.8,30.07,ESE,110,0.0,2.0,1,0.00,,,0.00,Wunderground v.1.15,2013-08-20 14:19:00,
2013-08-20 09:30:00,76.5,-31.3,30.06,ENE,77,0.0,2.0,1,0.00,,,0.00,Wunderground v.1.15,2013-08-20 14:30:00,
2013-08-20 09:39:00,77.0,-31.0,30.06,ESE,103,0.0,3.0,1,0.00,,,0.00,Wunderground v.1.15,2013-08-20 14:39:00,
2013-08-20 09:49:00,77.5,-30.7,30.07,ESE,104,0.0,2.0,1,0.00,,,0.00,Wunderground v.1.15,2013-08-20 14:49:00,
2013-08-20 09:59:00,78.4,-30.1,30.07,ESE,111,0.0,2.0,1,0.00,,,0.00,Wunderground v.1.15,2013-08-20 14:59:00,
2013-08-20 10:10:00,79.3,12.8,30.07,ESE,108,0.0,2.0,8,0.00,,,0.00,Wunderground v.1.15,2013-08-20 15:10:00,
2013-08-20 10:19:00,80.2,26.7,30.07,SE,138,0.0,2.0,14,0.00,,,0.00,Wunderground v.1.15,2013-08-20 15:19:00,
2013-08-20 10:29:00,80.8,19.1,30.07,ESE,111,1.0,2.0,10,0.00,,,0.00,Wunderground v.1.15,2013-08-20 15:29:00,
2013-08-20 10:39:00,81.5,25.9,30.07,SW,221,1.0,1.0,13,0.00,,,0.00,Wunderground v.1.15,2013-08-20 15:39:00,
2013-08-20 10:49:00,82.1,41.7,30.07,ESE,110,1.0,1.0,24,0.00,,,0.00,Wunderground v.1.15,2013-08-20 15:49:00,
2013-08-20 10:59:00,81.8,48.2,30.06,ENE,75,1.0,1.0,31,0.00,,,0.00,Wunderground v.1.15,2013-08-20 15:59:00,
2013-08-20 11:09:00,82.6,44.2,30.06,SE,145,0.0,2.0,26,0.00,,,0.00,Wunderground v.1.15,2013-08-20 16:09:00,
2013-08-20 11:20:00,83.2,54.2,30.06,East,97,0.0,2.0,37,0.00,,,0.00,Wunderground v.1.15,2013-08-20 16:20:00,
2013-08-20 11:29:00,83.1,54.9,30.06,SSE,148,0.0,2.0,38,0.00,,,0.00,Wunderground v.1.15,2013-08-20 16:29:00,
2013-08-20 11:39:00,83.1,54.1,30.06,ESE,121,1.0,1.0,37,0.00,,,0.00,Wunderground v.1.15,2013-08-20 16:39:00,
2013-08-20 11:44:00,83.8,54.7,30.06,SSE,152,1.0,2.0,37,0.00,,,0.00,Wunderground v.1.15,2013-08-20 16:44:00,
2013-08-20 11:54:00,84.0,59.1,30.05,SSE,150,1.0,3.0,43,0.00,,,0.00,Wunderground v.1.15,2013-08-20 16:54:00,
2013-08-20 12:04:00,84.3,58.7,30.06,South,170,0.0,2.0,42,0.00,,,0.00,Wunderground v.1.15,2013-08-20 17:04:00,
2013-08-20 12:10:00,84.9,61.2,30.06,SE,131,0.0,2.0,45,0.00,,,0.00,Wunderground v.1.15,2013-08-20 17:10:00,
2013-08-20 12:19:00,84.2,59.3,30.05,NNE,32,1.0,1.0,43,0.00,,,0.00,Wunderground v.1.15,2013-08-20 17:19:00,
2013-08-20 12:29:00,85.6,61.8,30.05,SE,131,1.0,1.0,45,0.00,,,0.00,Wunderground v.1.15,2013-08-20 17:29:00,
2013-08-20 12:39:00,85.3,61.6,30.05,ENE,60,1.0,1.0,45,0.00,,,0.00,Wunderground v.1.15,2013-08-20 17:39:00,
2013-08-20 12:49:00,86.0,62.2,30.04,WNW,303,0.0,2.0,45,0.00,,,0.00,Wunderground v.1.15,2013-08-20 17:49:00,
2013-08-20 12:59:00,85.5,61.7,30.04,East,86,1.0,1.0,45,0.00,,,0.00,Wunderground v.1.15,2013-08-20 17:59:00,
2013-08-20 13:09:00,86.4,63.8,30.03,East,90,1.0,1.0,47,0.00,,,0.00,Wunderground v.1.15,2013-08-20 18:09:00,
2013-08-20 13:19:00,86.6,62.7,30.03,WNW,297,1.0,1.0,45,0.00,,,0.00,Wunderground v.1.15,2013-08-20 18:19:00,
2013-08-20 13:24:00,87.5,62.2,30.03,ESE,122,0.0,2.0,43,0.00,,,0.00,Wunderground v.1.15,2013-08-20 18:24:00,
2013-08-20 13:34:00,86.6,64.0,30.03,South,184,1.0,4.0,47,0.00,,,0.00,Wunderground v.1.15,2013-08-20 18:34:00,
2013-08-20 13:44:00,86.6,64.0,30.02,NE,45,1.0,2.0,47,0.00,,,0.00,Wunderground v.1.15,2013-08-20 18:44:00,
2013-08-20 13:54:00,87.4,64.7,30.02,NE,37,1.0,2.0,47,0.00,,,0.00,Wunderground v.1.15,2013-08-20 18:54:00,
2013-08-20 14:00:00,87.5,64.8,30.02,NNE,25,0.0,2.0,47,0.00,,,0.00,Wunderground v.1.15,2013-08-20 19:00:00,
2013-08-20 14:09:00,87.5,64.8,30.02,SE,124,1.0,1.0,47,0.00,,,0.00,Wunderground v.1.15,2013-08-20 19:09:00,
2013-08-20 14:19:00,86.6,64.6,30.02,East,81,1.0,1.0,48,0.00,,,0.00,Wunderground v.1.15,2013-08-20 19:19:00,
2013-08-20 14:29:00,86.9,64.2,30.01,SE,145,0.0,2.0,47,0.00,,,0.00,Wunderground v.1.15,2013-08-20 19:29:00,
2013-08-20 14:40:00,87.9,65.2,30.01,East,84,0.0,2.0,47,0.00,,,0.00,Wunderground v.1.15,2013-08-20 19:40:00,
2013-08-20 14:49:00,87.3,64.6,30.01,NE,51,1.0,2.0,47,0.00,,,0.00,Wunderground v.1.15,2013-08-20 19:49:00,
2013-08-20 14:59:00,86.8,64.2,30.01,NNE,12,1.0,2.0,47,0.00,,,0.00,Wunderground v.1.15,2013-08-20 19:59:00,
2013-08-20 15:09:00,86.8,64.8,30.01,North,1,2.0,5.0,48,0.00,,,0.00,Wunderground v.1.15,2013-08-20 20:09:00,
2013-08-20 15:20:00,85.8,63.2,30.00,North,10,2.0,4.0,47,0.00,,,0.00,Wunderground v.1.15,2013-08-20 20:20:00,
2013-08-20 15:29:00,85.9,62.1,30.00,East,84,0.0,2.0,45,0.00,,,0.00,Wunderground v.1.15,2013-08-20 20:29:00,
2013-08-20 15:39:00,86.3,62.5,30.00,NNE,26,0.0,2.0,45,0.00,,,0.00,Wunderground v.1.15,2013-08-20 20:39:00,
2013-08-20 15:49:00,86.6,63.4,30.00,NNE,22,1.0,5.0,46,0.00,,,0.00,Wunderground v.1.15,2013-08-20 20:49:00,
2013-08-20 15:54:00,86.9,63.6,30.00,East,97,1.0,5.0,46,0.00,,,0.00,Wunderground v.1.15,2013-08-20 20:54:00,
2013-08-20 16:04:00,87.2,63.9,29.99,East,91,1.0,2.0,46,0.00,,,0.00,Wunderground v.1.15,2013-08-20 21:04:00,
2013-08-20 16:14:00,87.0,64.3,29.99,SSE,155,0.0,2.0,47,0.00,,,0.00,Wunderground v.1.15,2013-08-20 21:14:00,
2013-08-20 16:24:00,84.5,60.2,29.99,ESE,110,0.0,2.0,44,0.00,,,0.00,Wunderground v.1.15,2013-08-20 21:24:00,
2013-08-20 16:30:00,84.7,57.0,29.99,ESE,119,0.0,2.0,39,0.00,,,0.00,Wunderground v.1.15,2013-08-20 21:30:00,
2013-08-20 16:39:00,85.8,62.6,29.99,East,101,0.0,2.0,46,0.00,,,0.00,Wunderground v.1.15,2013-08-20 21:39:00,
2013-08-20 16:49:00,85.6,62.4,29.99,ESE,116,1.0,1.0,46,0.00,,,0.00,Wunderground v.1.15,2013-08-20 21:49:00,
2013-08-20 16:59:00,85.5,63.6,29.98,SE,131,1.0,1.0,48,0.00,,,0.00,Wunderground v.1.15,2013-08-20 21:59:00,
2013-08-20 17:10:00,85.4,63.5,29.98,NNE,22,1.0,1.0,48,0.00,,,0.00,Wunderground v.1.15,2013-08-20 22:10:00,
2013-08-20 17:19:00,85.4,62.3,29.98,SE,124,0.0,2.0,46,0.00,,,0.00,Wunderground v.1.15,2013-08-20 22:19:00,
2013-08-20 17:29:00,85.3,61.6,29.98,East,88,0.0,2.0,45,0.00,,,0.00,Wunderground v.1.15,2013-08-20 22:29:00,
2013-08-20 17:39:00,85.0,60.0,29.98,NNE,29,0.0,2.0,43,0.00,,,0.00,Wunderground v.1.15,2013-08-20 22:39:00,
2013-08-20 17:50:00,85.1,62.0,29.98,East,89,0.0,2.0,46,0.00,,,0.00,Wunderground v.1.15,2013-08-20 22:50:00,
2013-08-20 17:59:00,84.9,61.2,29.98,NNE,32,0.0,2.0,45,0.00,,,0.00,Wunderground v.1.15,2013-08-20 22:59:00,
2013-08-20 18:09:00,84.5,59.5,29.98,North,1,0.0,2.0,43,0.00,,,0.00,Wunderground v.1.15,2013-08-20 23:09:00,
2013-08-20 18:19:00,83.9,54.8,29.98,NE,36,0.0,2.0,37,0.00,,,0.00,Wunderground v.1.15,2013-08-20 23:19:00,
2013-08-20 18:29:00,83.4,53.6,29.98,NNE,30,0.0,2.0,36,0.00,,,0.00,Wunderground v.1.15,2013-08-20 23:29:00,
2013-08-20 18:39:00,82.5,46.1,29.98,NNE,28,0.0,2.0,28,0.00,,,0.00,Wunderground v.1.15,2013-08-20 23:39:00,
2013-08-20 18:49:00,81.2,30.7,29.98,NNE,29,0.0,2.0,16,0.00,,,0.00,Wunderground v.1.15,2013-08-20 23:49:00,
2013-08-20 19:00:00,80.2,-1.7,29.98,NNE,28,0.0,2.0,4,0.00,,,0.00,Wunderground v.1.15,2013-08-21 00:00:00,
2013-08-20 19:09:00,79.2,-29.7,29.98,NNE,29,0.0,2.0,1,0.00,,,0.00,Wunderground v.1.15,2013-08-21 00:09:00,
2013-08-20 19:19:00,78.3,-30.2,29.98,NNE,29,0.0,2.0,1,0.00,,,0.00,Wunderground v.1.15,2013-08-21 00:19:00,
2013-08-20 19:29:00,77.1,-30.9,29.99,NNE,28,0.0,2.0,1,0.00,,,0.00,Wunderground v.1.15,2013-08-21 00:29:00,
2013-08-20 19:39:00,76.0,-31.6,29.99,NNE,28,0.0,2.0,1,0.00,,,0.00,Wunderground v.1.15,2013-08-21 00:39:00,
2013-08-20 19:49:00,74.9,-32.2,29.99,NNE,28,0.0,2.0,1,0.00,,,0.00,Wunderground v.1.15,2013-08-21 00:49:00,
2013-08-20 19:59:00,73.7,-33.0,29.99,NNE,28,0.0,2.0,1,0.00,,,0.00,Wunderground v.1.15,2013-08-21 00:59:00,
2013-08-20 20:09:00,72.7,-33.6,29.99,NNE,28,0.0,2.0,1,0.00,,,0.00,Wunderground v.1.15,2013-08-21 01:09:00,
2013-08-20 20:19:00,72.1,-33.9,30.00,NNE,28,0.0,2.0,1,0.00,,,0.00,Wunderground v.1.15,2013-08-21 01:19:00,
2013-08-20 20:29:00,71.7,-34.2,30.00,NNE,29,0.0,2.0,1,0.00,,,0.00,Wunderground v.1.15,2013-08-21 01:29:00,
2013-08-20 20:35:00,71.2,-34.5,30.00,NNE,28,0.0,2.0,1,0.00,,,0.00,Wunderground v.1.15,2013-08-21 01:35:00,
2013-08-20 20:39:00,70.9,-34.7,30.00,NNE,28,0.0,2.0,1,0.00,,,0.00,Wunderground v.1.15,2013-08-21 01:39:00,
2013-08-20 20:49:00,70.0,-35.2,30.00,NNE,28,0.0,2.0,1,0.00,,,0.00,Wunderground v.1.15,2013-08-21 01:49:00,
2013-08-20 20:59:00,69.4,-35.6,30.01,NNE,28,0.0,2.0,1,0.00,,,0.00,Wunderground v.1.15,2013-08-21 01:59:00,
2013-08-20 21:09:00,69.4,-35.6,30.01,NNE,28,0.0,2.0,1,0.00,,,0.00,Wunderground v.1.15,2013-08-21 02:09:00,
2013-08-20 21:15:00,69.3,-35.6,30.01,NNE,28,0.0,2.0,1,0.00,,,0.00,Wunderground v.1.15,2013-08-21 02:15:00,
2013-08-20 21:24:00,69.0,-35.8,30.01,NNE,29,0.0,2.0,1,0.00,,,0.00,Wunderground v.1.15,2013-08-21 02:24:00,
2013-08-20 21:34:00,69.0,-35.8,30.01,NNE,28,0.0,2.0,1,0.00,,,0.00,Wunderground v.1.15,2013-08-21 02:34:00,
2013-08-20 21:44:00,69.0,-35.8,30.02,NNE,28,0.0,2.0,1,0.00,,,0.00,Wunderground v.1.15,2013-08-21 02:44:00,
2013-08-20 21:55:00,68.8,-35.9,30.02,NNE,28,0.0,2.0,1,0.00,,,0.00,Wunderground v.1.15,2013-08-21 02:55:00,
2013-08-20 22:04:00,68.3,-36.2,30.02,NNE,28,0.0,2.0,1,0.00,,,0.00,Wunderground v.1.15,2013-08-21 03:04:00,
2013-08-20 22:14:00,68.5,-36.1,30.02,NNE,28,0.0,2.0,1,0.00,,,0.00,Wunderground v.1.15,2013-08-21 03:14:00,
2013-08-20 22:19:00,68.3,-36.2,30.02,NNE,28,0.0,2.0,1,0.00,,,0.00,Wunderground v.1.15,2013-08-21 03:19:00,
2013-08-20 22:29:00,68.4,-36.2,30.03,NNE,28,0.0,2.0,1,0.00,,,0.00,Wunderground v.1.15,2013-08-21 03:29:00,
2013-08-20 22:34:00,68.6,-36.1,30.03,NNE,28,0.0,2.0,1,0.00,,,0.00,Wunderground v.1.15,2013-08-21 03:34:00,
2013-08-20 22:44:00,69.0,-35.8,30.03,NNW,340,0.0,2.0,1,0.00,,,0.00,Wunderground v.1.15,2013-08-21 03:44:00,
2013-08-20 22:54:00,69.4,-35.6,30.03,NNW,340,0.0,2.0,1,0.00,,,0.00,Wunderground v.1.15,2013-08-21 03:54:00,
2013-08-20 23:04:00,69.0,-35.8,30.03,NNW,340,0.0,2.0,1,0.00,,,0.00,Wunderground v.1.15,2013-08-21 04:04:00,
2013-08-20 23:10:00,68.7,-36.0,30.03,NNW,340,0.0,2.0,1,0.00,,,0.00,Wunderground v.1.15,2013-08-21 04:10:00,
2013-08-20 23:14:00,68.6,-36.1,30.03,NNW,340,0.0,2.0,1,0.00,,,0.00,Wunderground v.1.15,2013-08-21 04:14:00,
2013-08-20 23:19:00,68.6,-36.1,30.03,NNW,340,0.0,2.0,1,0.00,,,0.00,Wunderground v.1.15,2013-08-21 04:19:00,
2013-08-20 23:29:00,68.6,-36.1,30.03,NNW,340,0.0,2.0,1,0.00,,,0.00,Wunderground v.1.15,2013-08-21 04:29:00,
2013-08-20 23:39:00,68.5,-36.1,30.03,NNW,340,0.0,2.0,1,0.00,,,0.00,Wunderground v.1.15,2013-08-21 04:39:00,
2013-08-20 23:44:00,68.9,-35.9,30.03,NNW,340,0.0,2.0,1,0.00,,,0.00,Wunderground v.1.15,2013-08-21 04:44:00,
2013-08-20 23:50:00,68.9,-35.9,30.03,NNW,340,0.0,2.0,1,0.00,,,0.00,Wunderground v.1.15,2013-08-21 04:50:00,
2013-08-20 23:54:00,68.6,-36.1,30.03,NNW,340,0.0,2.0,1,0.00,,,0.00,Wunderground v.1.15,2013-08-21 04:54:00,